Time;durP1;ratioP1;P1;durP2;ratioP2;P2;SDS_P1;SDS_P2;PMS_P1;PMS_P2;Temp;Humidity;BMP_temperature;BMP_pressure;BME280_temperature;BME280_humidity;BME280_pressure;Samples;Min_cycle;Max_cycle;Signal;HPM_P1;HPM_P2
2023/10/18 00:00:04;;;;;;;21.27;8.27;;;;;;;4.94;100.00;101204.22;5050516;28;20033;-67
2023/10/18 00:02:30;;;;;;;22.48;8.57;;;;;;;4.97;100.00;101195.47;5050444;28;20033;-66
2023/10/18 00:04:57;;;;;;;21.52;8.30;;;;;;;4.97;100.00;101200.13;5048570;28;20037;-66
2023/10/18 00:07:22;;;;;;;21.70;8.23;;;;;;;4.92;100.00;101187.19;5050138;28;20483;-67
2023/10/18 00:09:51;;;;;;;21.90;8.60;;;;;;;4.97;100.00;101191.91;5048938;28;20155;-67
2023/10/18 00:12:16;;;;;;;21.25;8.27;;;;;;;4.98;100.00;101197.13;5050271;28;20029;-67
2023/10/18 00:14:44;;;;;;;22.52;9.43;;;;;;;4.95;100.00;101197.66;5050254;28;20032;-67
2023/10/18 00:17:10;;;;;;;21.58;8.15;;;;;;;4.94;100.00;101197.91;5050089;28;20103;-66
2023/10/18 00:19:36;;;;;;;20.83;8.73;;;;;;;4.91;100.00;101193.75;5048453;28;20028;-66
2023/10/18 00:22:01;;;;;;;21.23;8.70;;;;;;;4.91;100.00;101181.97;5049777;28;20029;-66
2023/10/18 00:24:27;;;;;;;22.38;8.73;;;;;;;4.90;100.00;101183.88;5049421;28;20032;-66
2023/10/18 00:26:53;;;;;;;23.27;9.30;;;;;;;4.91;100.00;101185.53;5049621;28;20029;-66
2023/10/18 00:29:19;;;;;;;21.50;8.45;;;;;;;4.90;100.00;101180.31;5049712;28;20023;-67
2023/10/18 00:31:44;;;;;;;23.35;8.38;;;;;;;4.88;100.00;101180.56;5049633;28;20021;-67
2023/10/18 00:34:12;;;;;;;22.73;9.10;;;;;;;4.87;100.00;101178.09;5049486;28;20025;-67
2023/10/18 00:36:37;;;;;;;21.27;9.00;;;;;;;4.86;100.00;101176.44;5049272;28;20021;-67
2023/10/18 00:39:19;;;;;;;21.40;8.50;;;;;;;4.86;100.00;101182.75;5049456;28;20766;-67
2023/10/18 00:41:44;;;;;;;21.45;8.20;;;;;;;4.82;100.00;101176.94;5049719;28;20037;-65
2023/10/18 00:44:12;;;;;;;21.48;8.32;;;;;;;4.74;100.00;101169.19;5050660;28;20330;-66
2023/10/18 00:46:39;;;;;;;22.42;9.23;;;;;;;4.79;100.00;101182.13;5052954;28;20107;-67
2023/10/18 00:49:14;;;;;;;22.38;8.77;;;;;;;4.75;100.00;101181.00;5053034;28;20056;-67
2023/10/18 00:51:43;;;;;;;22.08;8.68;;;;;;;4.74;100.00;101182.09;5053083;28;20103;-67
2023/10/18 00:54:11;;;;;;;21.98;8.73;;;;;;;4.68;100.00;101182.00;5052826;28;20029;-67
2023/10/18 00:56:39;;;;;;;22.55;8.85;;;;;;;4.70;100.00;101179.03;5052341;28;20111;-67
2023/10/18 00:59:09;;;;;;;23.08;9.35;;;;;;;4.68;100.00;101173.78;5052913;28;20041;-67
2023/10/18 01:01:35;;;;;;;21.23;8.50;;;;;;;4.66;100.00;101169.66;5052847;28;20441;-67
2023/10/18 01:04:05;;;;;;;22.90;9.63;;;;;;;4.64;100.00;101172.66;5052648;28;20120;-67
2023/10/18 01:06:31;;;;;;;22.55;8.65;;;;;;;4.64;100.00;101169.09;5052893;28;20044;-67
2023/10/18 01:08:58;;;;;;;21.88;9.15;;;;;;;4.60;100.00;101152.34;5052647;28;20098;-67
2023/10/18 01:11:28;;;;;;;22.33;8.90;;;;;;;4.61;100.00;101164.97;5052536;28;20048;-67
2023/10/18 01:13:55;;;;;;;22.75;9.27;;;;;;;4.57;100.00;101152.88;5052795;28;20106;-67
2023/10/18 01:16:22;;;;;;;21.38;8.75;;;;;;;4.57;100.00;101146.53;5052668;28;20036;-67
2023/10/18 01:18:52;;;;;;;22.40;9.23;;;;;;;4.56;100.00;101151.22;5052431;28;20417;-67
2023/10/18 01:21:21;;;;;;;23.80;9.77;;;;;;;4.55;100.00;101148.72;5052805;28;20105;-68
2023/10/18 01:23:51;;;;;;;22.92;9.38;;;;;;;4.55;100.00;101140.50;5052672;28;20033;-66
2023/10/18 01:26:19;;;;;;;21.20;9.23;;;;;;;4.53;100.00;101129.81;5050825;28;20025;-66
2023/10/18 01:28:45;;;;;;;20.80;8.23;;;;;;;4.54;100.00;101128.72;5052119;28;20048;-67
2023/10/18 01:31:12;;;;;;;23.38;9.05;;;;;;;4.53;100.00;101127.06;5052178;28;20025;-67
2023/10/18 01:33:45;;;;;;;21.80;8.68;;;;;;;4.52;100.00;101125.41;5052640;28;20039;-66
2023/10/18 01:36:13;;;;;;;21.67;8.75;;;;;;;4.51;100.00;101132.81;5052505;28;20033;-67
2023/10/18 01:38:46;;;;;;;22.77;9.18;;;;;;;4.52;100.00;101125.41;5052458;28;20032;-67
2023/10/18 01:41:28;;;;;;;22.00;8.77;;;;;;;4.49;100.00;101121.28;5052541;28;20029;-67
2023/10/18 01:44:07;;;;;;;22.45;9.18;;;;;;;4.48;100.00;101099.63;5052759;28;20531;-67
2023/10/18 01:46:37;;;;;;;22.52;8.82;;;;;;;4.48;100.00;101103.19;5052112;28;20036;-66
2023/10/18 01:49:04;;;;;;;21.65;9.32;;;;;;;4.44;100.00;101090.25;5051585;28;20510;-67
2023/10/18 01:51:30;;;;;;;21.75;8.68;;;;;;;4.43;100.00;101092.19;5052006;28;20425;-66
2023/10/18 01:53:55;;;;;;;22.77;8.85;;;;;;;4.41;100.00;101080.66;5051697;28;20039;-66
2023/10/18 01:56:21;;;;;;;22.33;9.20;;;;;;;4.37;100.00;101074.88;5051296;28;20079;-66
2023/10/18 01:58:46;;;;;;;20.73;8.75;;;;;;;4.42;100.00;101081.47;5051967;28;20333;-65
2023/10/18 02:01:13;;;;;;;21.40;8.00;;;;;;;4.40;100.00;101078.16;5051951;28;20033;-66
2023/10/18 02:03:41;;;;;;;22.70;9.48;;;;;;;4.39;100.00;101076.53;5052032;28;20036;-67
2023/10/18 02:06:07;;;;;;;23.50;9.60;;;;;;;4.40;100.00;101079.00;5051908;28;20041;-66
2023/10/18 02:08:34;;;;;;;24.10;9.48;;;;;;;4.41;100.00;101074.31;5051544;28;20021;-66
2023/10/18 02:11:00;;;;;;;22.30;9.00;;;;;;;4.37;100.00;101069.38;5051518;28;20051;-67
2023/10/18 02:13:26;;;;;;;21.60;8.57;;;;;;;4.34;100.00;101066.34;5051118;28;20029;-67
2023/10/18 02:15:51;;;;;;;22.20;8.82;;;;;;;4.38;100.00;101070.19;5051214;28;20021;-67
2023/10/18 02:18:16;;;;;;;21.80;8.80;;;;;;;4.37;100.00;101060.31;5051154;28;20021;-67
2023/10/18 02:20:50;;;;;;;21.50;8.88;;;;;;;4.39;100.00;101065.56;5051475;28;20035;-67
2023/10/18 02:23:16;;;;;;;22.38;9.15;;;;;;;4.34;100.00;101049.91;5051518;28;20089;-65
2023/10/18 02:28:08;;;;;;;21.50;8.88;;;;;;;4.37;100.00;101046.63;5051072;28;20033;-66
2023/10/18 02:30:37;;;;;;;22.95;9.18;;;;;;;4.38;100.00;101040.06;5051252;28;20028;-66
2023/10/18 02:33:04;;;;;;;22.55;9.10;;;;;;;4.37;100.00;101038.41;5051204;28;20029;-66
2023/10/18 02:35:31;;;;;;;23.45;9.18;;;;;;;4.36;100.00;101043.06;5051048;28;20417;-67
2023/10/18 02:37:56;;;;;;;22.33;9.15;;;;;;;4.37;100.00;101033.78;5050929;28;20040;-67
2023/10/18 02:40:30;;;;;;;22.30;9.00;;;;;;;4.37;100.00;101036.50;5051211;28;20025;-67
2023/10/18 02:42:58;;;;;;;21.40;8.73;;;;;;;4.36;100.00;101031.28;5051183;28;20021;-67
2023/10/18 02:45:23;;;;;;;23.63;8.07;;;;;;;4.34;100.00;101023.34;5051069;28;20043;-67
2023/10/18 02:47:51;;;;;;;23.13;9.02;;;;;;;4.30;100.00;101021.38;5050875;28;20111;-67
2023/10/18 02:50:20;;;;;;;23.05;9.00;;;;;;;4.36;100.00;101026.63;5051254;28;20028;-67
2023/10/18 02:52:48;;;;;;;21.67;8.55;;;;;;;4.31;100.00;101017.53;5051475;28;20411;-67
2023/10/18 02:55:18;;;;;;;22.05;8.52;;;;;;;4.35;100.00;101021.41;5051220;28;20056;-66
2023/10/18 02:57:46;;;;;;;21.80;9.40;;;;;;;4.32;100.00;101016.47;5051283;28;20047;-66
2023/10/18 03:00:13;;;;;;;22.55;8.82;;;;;;;4.32;100.00;101020.03;5051029;28;20114;-66
2023/10/18 03:02:38;;;;;;;21.20;8.15;;;;;;;4.33;100.00;101021.69;5050708;28;20033;-66
2023/10/18 03:05:07;;;;;;;22.00;8.50;;;;;;;4.30;100.00;101010.41;5050788;28;20030;-67
2023/10/18 03:07:34;;;;;;;22.05;8.90;;;;;;;4.31;100.00;101010.16;5050433;28;20449;-67
2023/10/18 03:10:05;;;;;;;20.52;7.80;;;;;;;4.29;100.00;101006.88;5050835;28;20025;-66
2023/10/18 03:12:36;;;;;;;22.60;8.40;;;;;;;4.26;100.00;100993.69;5050688;28;20457;-66
2023/10/18 03:15:08;;;;;;;23.30;8.73;;;;;;;4.27;100.00;100992.59;5050603;28;20025;-66
2023/10/18 03:17:36;;;;;;;21.95;8.60;;;;;;;4.25;100.00;100994.75;5050510;28;20449;-68
2023/10/18 03:20:09;;;;;;;22.60;8.55;;;;;;;4.25;100.00;101004.91;5051067;28;20033;-67
2023/10/18 03:22:39;;;;;;;21.88;7.72;;;;;;;4.27;100.00;100986.28;5050753;28;20029;-66
2023/10/18 03:25:09;;;;;;;21.52;8.35;;;;;;;4.24;100.00;100997.78;5050277;28;20065;-66
2023/10/18 03:27:41;;;;;;;24.67;9.18;;;;;;;4.23;100.00;100980.50;5050086;28;20113;-66
2023/10/18 03:30:44;;;;;;;22.77;8.55;;;;;;;4.24;100.00;100979.41;5050483;28;20024;-67
2023/10/18 03:33:00;;;;;;;22.13;8.93;;;;;;;4.25;100.00;100978.34;5049974;28;20451;-66
2023/10/18 03:35:26;;;;;;;22.92;8.45;;;;;;;4.26;100.00;100977.25;5050160;28;20135;-67
2023/10/18 03:37:56;;;;;;;20.33;7.90;;;;;;;4.28;100.00;100974.25;5050147;28;20025;-66
2023/10/18 03:40:26;;;;;;;22.88;7.88;;;;;;;4.28;100.00;100968.75;5050137;28;20465;-67
2023/10/18 03:42:52;;;;;;;21.95;8.48;;;;;;;4.29;100.00;100975.91;5050289;28;20021;-66
2023/10/18 03:45:21;;;;;;;21.15;8.68;;;;;;;4.27;100.00;100969.84;5049837;28;20392;-65
2023/10/18 03:47:57;;;;;;;20.52;7.90;;;;;;;4.28;100.00;100968.75;5049853;28;20064;-67
2023/10/18 03:50:28;;;;;;;22.95;8.57;;;;;;;4.25;100.00;100948.22;5050038;28;20333;-67
2023/10/18 03:52:54;;;;;;;22.15;8.70;;;;;;;4.28;100.00;100952.31;5049832;28;20056;-67
2023/10/18 03:55:23;;;;;;;21.65;8.35;;;;;;;4.28;100.00;100947.69;5050188;28;20029;-66
2023/10/18 03:57:54;;;;;;;21.20;7.63;;;;;;;4.30;100.00;100944.69;5049714;28;20075;-67
2023/10/18 04:02:59;;;;;;;20.67;8.45;;;;;;;4.36;100.00;100949.94;5050037;28;20037;-67
2023/10/18 04:05:45;;;;;;;21.48;8.25;;;;;;;4.36;100.00;100941.72;5049748;28;20029;-66
2023/10/18 04:08:14;;;;;;;22.65;8.02;;;;;;;4.39;100.00;100936.81;5049998;28;20064;-67
2023/10/18 04:10:59;;;;;;;22.42;7.78;;;;;;;4.40;100.00;100933.81;5049699;28;20364;-67
2023/10/18 04:13:27;;;;;;;21.40;7.60;;;;;;;4.39;100.00;100932.16;5050064;28;20310;-67
2023/10/18 04:16:11;;;;;;;20.80;8.13;;;;;;;4.37;100.00;100926.94;5049687;28;20025;-67
2023/10/18 04:18:37;;;;;;;20.98;8.00;;;;;;;4.37;100.00;100924.22;5050275;28;20017;-67
2023/10/18 04:21:05;;;;;;;20.88;8.48;;;;;;;4.37;100.00;100916.00;5053638;28;20051;-67
2023/10/18 04:23:34;;;;;;;23.08;8.73;;;;;;;4.39;100.00;100917.66;5053716;28;20021;-66
2023/10/18 04:26:03;;;;;;;20.38;7.93;;;;;;;4.37;100.00;100907.78;5053843;28;20025;-66
2023/10/18 04:28:30;;;;;;;20.33;7.60;;;;;;;4.38;100.00;100905.84;5054197;28;20025;-67
2023/10/18 04:31:01;;;;;;;21.30;7.55;;;;;;;4.37;100.00;100902.28;5053856;28;20102;-67
2023/10/18 04:33:37;;;;;;;22.33;8.48;;;;;;;4.39;100.00;100903.94;5053810;28;20032;-67
2023/10/18 04:36:12;;;;;;;22.40;8.02;;;;;;;4.39;100.00;100895.72;5051961;28;20033;-67
2023/10/18 04:38:44;;;;;;;21.83;8.70;;;;;;;4.39;100.00;100888.31;5052972;28;20376;-66
2023/10/18 04:41:23;;;;;;;21.30;7.70;;;;;;;4.41;100.00;100885.31;5053268;28;20036;-67
2023/10/18 04:43:50;;;;;;;21.23;7.93;;;;;;;4.42;100.00;100890.56;5053514;28;20036;-67
2023/10/18 04:46:16;;;;;;;20.92;7.70;;;;;;;4.41;100.00;100880.69;5053574;28;20045;-66
2023/10/18 04:53:57;;;;;;;22.25;7.85;;;;;;;4.47;100.00;100882.34;5053432;28;20060;-67
2023/10/18 04:56:34;;;;;;;21.70;7.57;;;;;;;4.47;100.00;100868.66;5052714;28;20106;-66
2023/10/18 04:59:09;;;;;;;22.02;7.65;;;;;;;4.49;100.00;100863.75;5052989;28;20047;-67
2023/10/18 05:01:41;;;;;;;21.63;8.02;;;;;;;4.51;100.00;100855.25;5053195;28;20032;-66
2023/10/18 05:04:19;;;;;;;21.58;7.57;;;;;;;4.51;100.00;100861.56;5053095;28;20116;-67
2023/10/18 05:06:54;;;;;;;21.17;8.65;;;;;;;4.53;100.00;100853.06;5052556;28;20029;-66
2023/10/18 05:09:41;;;;;;;20.92;7.43;;;;;;;4.49;100.00;100851.94;5051697;28;20125;-66
2023/10/18 05:17:32;;;;;;;20.23;7.88;;;;;;;4.51;100.00;100849.75;5053054;28;20040;-66
2023/10/18 05:20:09;;;;;;;20.92;8.05;;;;;;;4.51;100.00;100858.84;5052576;28;20025;-66
2023/10/18 05:22:41;;;;;;;20.20;7.43;;;;;;;4.44;100.00;100839.03;5051908;28;20021;-66
2023/10/18 05:27:59;;;;;;;20.30;7.03;;;;;;;4.50;100.00;100846.22;5051920;28;20069;-68
2023/10/18 05:31:03;;;;;;;20.52;7.00;;;;;;;4.50;100.00;100848.97;5049119;28;20033;-67
2023/10/18 05:33:47;;;;;;;20.73;7.70;;;;;;;4.50;100.00;100842.63;5051031;28;20040;-67
2023/10/18 05:43:52;;;;;;;21.30;7.57;;;;;;;4.49;100.00;100833.59;5052556;28;20090;-66
2023/10/18 05:46:20;;;;;;;20.70;7.35;;;;;;;4.53;100.00;100829.22;5052155;28;20029;-68
2023/10/18 05:48:45;;;;;;;21.77;7.78;;;;;;;4.51;100.00;100823.22;5051707;28;20388;-67
2023/10/18 05:53:58;;;;;;;19.85;7.03;;;;;;;4.51;100.00;100823.22;5051961;28;20098;-67
2023/10/18 05:56:29;;;;;;;22.35;7.43;;;;;;;4.51;100.00;100819.63;5051616;28;20330;-67
2023/10/18 06:01:40;;;;;;;20.80;7.78;;;;;;;4.48;100.00;100820.19;5052454;28;20448;-66
2023/10/18 06:04:05;;;;;;;22.55;7.70;;;;;;;4.47;100.00;100802.09;5052146;28;20025;-67
2023/10/18 06:06:30;;;;;;;20.67;7.60;;;;;;;4.47;100.00;100813.88;5052654;28;20040;-67
2023/10/18 06:08:58;;;;;;;22.70;8.13;;;;;;;4.47;100.00;100811.13;5052223;28;20388;-67
2023/10/18 06:11:25;;;;;;;21.40;7.53;;;;;;;4.46;100.00;100801.25;5052124;28;20104;-67
2023/10/18 06:13:52;;;;;;;19.42;7.10;;;;;;;4.42;100.00;100796.56;5051858;28;20101;-67
2023/10/18 06:16:20;;;;;;;20.52;7.60;;;;;;;4.50;100.00;100807.88;5051544;28;20500;-66
2023/10/18 06:18:49;;;;;;;21.88;7.88;;;;;;;4.48;100.00;100807.28;5051673;28;20032;-66
2023/10/18 06:21:20;;;;;;;20.60;6.80;;;;;;;4.52;100.00;100808.44;5051515;28;20055;-67
2023/10/18 06:23:54;;;;;;;20.02;6.97;;;;;;;4.53;100.00;100807.31;5051536;28;20029;-66
2023/10/18 06:26:30;;;;;;;20.48;7.63;;;;;;;4.53;100.00;100801.81;5051858;28;20109;-66
2023/10/18 06:29:00;;;;;;;21.25;7.53;;;;;;;4.55;100.00;100807.06;5051350;28;20500;-66
2023/10/18 06:31:29;;;;;;;19.67;7.38;;;;;;;4.57;100.00;100801.31;5051955;28;20507;-66
2023/10/18 06:33:57;;;;;;;20.88;7.25;;;;;;;4.60;100.00;100801.59;5051736;28;20115;-66
2023/10/18 06:36:24;;;;;;;21.58;7.25;;;;;;;4.63;100.00;100797.53;5051291;28;20105;-67
2023/10/18 06:38:50;;;;;;;20.25;7.00;;;;;;;4.64;100.00;100802.72;5049636;28;20044;-67
2023/10/18 06:41:18;;;;;;;22.15;8.75;;;;;;;4.68;100.00;100786.56;5050373;28;20037;-67
2023/10/18 06:43:47;;;;;;;21.77;7.57;;;;;;;4.68;100.00;100776.41;5050912;28;20055;-68
2023/10/18 06:46:26;;;;;;;20.23;7.40;;;;;;;4.73;100.00;100774.78;5051192;28;20048;-67
2023/10/18 06:48:52;;;;;;;22.70;8.23;;;;;;;4.76;100.00;100774.28;5051129;28;20132;-67
2023/10/18 06:51:17;;;;;;;21.08;7.22;;;;;;;4.81;100.00;100766.88;5051092;28;20108;-67
2023/10/18 06:53:50;;;;;;;20.38;7.70;;;;;;;4.82;100.00;100763.03;5050967;28;20098;-67
2023/10/18 06:56:22;;;;;;;20.80;7.65;;;;;;;4.84;100.00;100757.31;5051123;28;20033;-67
2023/10/18 06:58:47;;;;;;;21.27;7.28;;;;;;;4.86;100.00;100752.38;5051503;28;20033;-67
2023/10/18 07:01:31;;;;;;;21.13;7.45;;;;;;;4.90;100.00;100749.91;5051249;28;20025;-67
2023/10/18 07:03:57;;;;;;;21.13;7.50;;;;;;;4.92;100.00;100734.84;5049935;28;20017;-66
2023/10/18 07:06:29;;;;;;;20.80;7.20;;;;;;;4.99;100.00;100745.56;5051366;28;20117;-66
2023/10/18 07:08:55;;;;;;;21.13;7.43;;;;;;;5.05;100.00;100751.88;5051511;28;20109;-67
2023/10/18 07:11:23;;;;;;;21.08;7.20;;;;;;;5.07;100.00;100741.44;5051406;28;20025;-67
2023/10/18 07:13:50;;;;;;;21.13;7.07;;;;;;;5.11;100.00;100735.13;5051563;28;20067;-66
2023/10/18 07:21:43;;;;;;;21.48;7.20;;;;;;;5.19;100.00;100736.53;5051134;28;20040;-67
2023/10/18 07:24:11;;;;;;;20.27;6.82;;;;;;;5.24;100.00;100741.19;5050892;28;20021;-67
2023/10/18 07:26:37;;;;;;;20.70;6.85;;;;;;;5.28;100.00;100739.56;5050882;28;20021;-67
2023/10/18 07:29:09;;;;;;;20.02;6.78;;;;;;;5.33;100.00;100736.81;5050541;28;20037;-67
2023/10/18 07:31:46;;;;;;;20.15;7.10;;;;;;;5.35;100.00;100726.38;5051081;28;20090;-67
2023/10/18 07:34:19;;;;;;;21.13;6.68;;;;;;;5.42;100.00;100729.69;5051058;28;20040;-67
2023/10/18 07:36:47;;;;;;;21.58;7.35;;;;;;;5.46;100.00;100725.31;5051031;28;20021;-66
2023/10/18 07:39:16;;;;;;;19.83;6.85;;;;;;;5.50;100.00;100705.53;5050875;28;20025;-67
2023/10/18 07:41:42;;;;;;;20.25;6.50;;;;;;;5.55;100.00;100697.31;5049442;28;20033;-68
2023/10/18 07:44:07;;;;;;;20.73;7.28;;;;;;;5.62;100.00;100701.38;5050885;28;20029;-67
2023/10/18 07:46:39;;;;;;;20.55;7.20;;;;;;;5.67;100.00;100699.75;5050718;28;20104;-67
2023/10/18 07:49:16;;;;;;;22.38;7.70;;;;;;;5.76;100.00;100696.16;5050736;28;20101;-67
2023/10/18 07:51:48;;;;;;;19.52;6.75;;;;;;;5.83;100.00;100706.03;5050859;28;20033;-68
2023/10/18 07:54:14;;;;;;;20.63;6.90;;;;;;;5.88;100.00;100703.28;5050773;28;20036;-67
2023/10/18 07:56:48;;;;;;;17.88;6.05;;;;;;;5.91;100.00;100683.50;5050407;28;20114;-66
2023/10/18 07:59:27;;;;;;;20.40;7.38;;;;;;;5.96;100.00;100690.91;5050742;28;20051;-67
2023/10/18 08:04:38;;;;;;;19.80;6.03;;;;;;;6.11;100.00;100681.84;5050652;28;20043;-67
2023/10/18 08:07:04;;;;;;;19.55;6.50;;;;;;;6.15;100.00;100683.75;5050340;28;20456;-66
2023/10/18 08:09:30;;;;;;;19.50;6.47;;;;;;;6.20;100.00;100688.41;5050308;28;20408;-67
2023/10/18 08:11:56;;;;;;;19.80;6.40;;;;;;;6.24;100.00;100692.22;5050510;28;20117;-66
2023/10/18 08:14:24;;;;;;;19.95;6.82;;;;;;;6.30;100.00;100679.28;5048891;28;20017;-67
2023/10/18 08:16:56;;;;;;;19.25;6.55;;;;;;;6.35;100.00;100696.56;5050056;28;20021;-67
2023/10/18 08:19:23;;;;;;;19.55;6.38;;;;;;;6.42;100.00;100684.47;5050210;28;20113;-67
2023/10/18 08:22:21;;;;;;;18.52;7.00;;;;;;;6.44;100.00;100676.72;5048739;28;20028;-66
2023/10/18 08:24:49;;;;;;;18.50;6.07;;;;;;;6.51;100.00;100669.03;5049927;28;20067;-67
2023/10/18 08:27:15;;;;;;;20.00;6.47;;;;;;;6.60;100.00;100670.06;5050328;28;20121;-66
2023/10/18 08:29:41;;;;;;;19.58;6.47;;;;;;;6.68;100.00;100674.13;5049955;28;20104;-67
2023/10/18 08:32:16;;;;;;;20.15;6.88;;;;;;;6.78;100.00;100665.81;5050004;28;20063;-67
2023/10/18 08:34:43;;;;;;;20.27;6.80;;;;;;;6.93;100.00;100670.41;5050518;28;20029;-67
2023/10/18 08:37:11;;;;;;;20.52;6.93;;;;;;;7.05;100.00;100661.78;5050149;28;20056;-68
2023/10/18 08:39:39;;;;;;;18.73;6.03;;;;;;;7.16;100.00;100668.03;5050148;28;20024;-67
2023/10/18 08:42:12;;;;;;;20.60;6.55;;;;;;;7.27;100.00;100674.28;5049586;28;20105;-67
2023/10/18 08:44:40;;;;;;;20.30;6.68;;;;;;;7.37;100.00;100665.94;5049371;28;20029;-65
2023/10/18 08:49:44;;;;;;;20.92;6.75;;;;;;;7.47;100.00;100665.00;5049992;28;20090;-67
2023/10/18 08:52:10;;;;;;;19.25;6.40;;;;;;;7.48;100.00;100661.97;5049578;28;20079;-68
2023/10/18 08:54:42;;;;;;;20.38;6.55;;;;;;;7.47;100.00;100643.81;5047972;28;20029;-67
2023/10/18 08:57:09;;;;;;;19.45;6.45;;;;;;;7.51;100.00;100652.31;5047535;28;20049;-66
2023/10/18 08:59:42;;;;;;;19.73;6.75;;;;;;;7.55;100.00;100633.28;5049349;28;20036;-67
2023/10/18 09:02:23;;;;;;;19.15;6.40;;;;;;;7.62;100.00;100629.09;5048209;28;20067;-68
2023/10/18 09:04:53;;;;;;;21.00;6.75;;;;;;;7.72;100.00;100628.13;5050141;28;20029;-67
2023/10/18 09:07:22;;;;;;;20.42;6.88;;;;;;;7.83;100.00;100628.03;5052630;28;20029;-68
2023/10/18 09:09:57;;;;;;;20.73;7.03;;;;;;;7.85;100.00;100615.59;5053029;28;20025;-67
2023/10/18 09:15:29;;;;;;;19.40;6.40;;;;;;;7.90;100.00;100604.53;5051278;28;20404;-67
2023/10/18 09:17:56;;;;;;;20.20;6.85;;;;;;;7.96;100.00;100605.28;5052530;28;20021;-67
2023/10/18 09:20:29;;;;;;;20.20;7.40;;;;;;;8.04;100.00;100601.03;5052754;28;20068;-67
2023/10/18 09:23:01;;;;;;;20.10;6.55;;;;;;;8.10;100.00;100606.19;5052492;28;20082;-67
2023/10/18 09:28:11;;;;;;;20.65;7.30;;;;;;;8.32;100.00;100595.72;5052535;28;20052;-66
2023/10/18 09:30:36;;;;;;;19.88;7.10;;;;;;;8.38;100.00;100589.84;5052381;28;20101;-67
2023/10/18 09:33:03;;;;;;;22.30;7.10;;;;;;;8.44;100.00;100596.09;5052493;28;20063;-67
2023/10/18 09:35:30;;;;;;;19.67;6.57;;;;;;;8.51;99.84;100585.56;5052760;28;20032;-67
2023/10/18 09:38:03;;;;;;;20.60;6.95;;;;;;;8.61;99.48;100584.59;5052734;28;20108;-67
2023/10/18 09:40:29;;;;;;;19.48;7.03;;;;;;;8.68;98.08;100573.19;5052250;28;20032;-67
2023/10/18 09:42:54;;;;;;;19.45;7.13;;;;;;;8.73;98.59;100564.81;5052121;28;20021;-67
2023/10/18 09:45:20;;;;;;;19.48;6.90;;;;;;;8.85;98.15;100572.63;5052310;28;20132;-67
2023/10/18 09:47:46;;;;;;;18.83;7.25;;;;;;;8.94;96.99;100573.56;5052229;28;20044;-67
2023/10/18 09:50:23;;;;;;;19.33;6.80;;;;;;;9.02;97.08;100566.53;5052202;28;20033;-66
2023/10/18 09:52:56;;;;;;;22.45;7.63;;;;;;;9.07;97.22;100562.88;5052471;28;20037;-67
2023/10/18 09:55:26;;;;;;;20.58;6.55;;;;;;;9.10;95.15;100545.72;5052557;28;20036;-67
2023/10/18 09:58:02;;;;;;;18.85;7.07;;;;;;;9.25;96.85;100545.44;5052163;28;20500;-67
2023/10/18 10:00:29;;;;;;;22.60;6.82;;;;;;;9.36;96.16;100529.50;5052529;28;20461;-67
2023/10/18 10:02:56;;;;;;;20.52;7.55;;;;;;;9.50;94.90;100537.78;5052688;28;20060;-66
2023/10/18 10:05:24;;;;;;;19.90;7.20;;;;;;;9.59;95.32;100540.66;5051975;28;20032;-67
2023/10/18 10:07:54;;;;;;;20.27;7.43;;;;;;;9.70;95.07;100538.50;5052019;28;20043;-66
2023/10/18 10:10:24;;;;;;;20.13;7.00;;;;;;;9.75;93.06;100530.91;5051888;28;20105;-67
2023/10/18 10:12:57;;;;;;;20.45;7.20;;;;;;;9.86;93.38;100527.94;5051896;28;20025;-67
2023/10/18 10:15:24;;;;;;;19.63;6.78;;;;;;;9.98;94.11;100518.00;5052279;28;20079;-67
2023/10/18 10:17:58;;;;;;;19.95;7.13;;;;;;;10.09;93.35;100513.06;5052043;28;20123;-67
2023/10/18 10:20:31;;;;;;;20.13;6.82;;;;;;;10.13;93.11;100491.16;5051755;28;20028;-67
2023/10/18 10:23:02;;;;;;;20.90;6.85;;;;;;;10.19;92.57;100497.38;5052048;28;20033;-67
2023/10/18 10:25:31;;;;;;;19.83;7.10;;;;;;;10.18;91.68;100481.94;5052327;28;20056;-67
2023/10/18 10:27:59;;;;;;;20.67;7.00;;;;;;;10.25;91.68;100485.06;5051749;28;20374;-67
2023/10/18 10:30:35;;;;;;;19.80;7.15;;;;;;;10.30;91.51;100482.16;5051874;28;20032;-67
2023/10/18 10:33:10;;;;;;;20.45;7.15;;;;;;;10.34;91.86;100471.31;5051481;28;20085;-66
2023/10/18 10:35:44;;;;;;;20.17;7.28;;;;;;;10.43;91.21;100467.50;5051604;28;20040;-66
2023/10/18 10:38:13;;;;;;;20.52;7.75;;;;;;;10.44;90.66;100452.56;5051468;28;20025;-67
2023/10/18 10:40:45;;;;;;;21.55;7.20;;;;;;;10.43;91.16;100450.91;5051835;28;20090;-67
2023/10/18 10:43:11;;;;;;;20.58;7.57;;;;;;;10.45;91.03;100448.66;5051398;28;20051;-67
2023/10/18 10:48:18;;;;;;;19.70;6.80;;;;;;;10.56;91.21;100442.88;5051196;28;20587;-69
2023/10/18 10:50:56;;;;;;;19.33;8.10;;;;;;;10.63;91.32;100420.31;5050927;28;20036;-68
2023/10/18 10:53:43;;;;;;;20.05;7.13;;;;;;;10.68;91.29;100411.84;5050870;28;20039;-68
2023/10/18 10:56:18;;;;;;;19.85;7.22;;;;;;;10.75;90.73;100406.66;5050900;28;20035;-67
2023/10/18 10:59:03;;;;;;;19.40;7.05;;;;;;;10.80;90.50;100409.31;5050613;28;20044;-67
2023/10/18 11:01:43;;;;;;;19.13;6.13;;;;;;;10.90;90.40;100405.44;5049584;28;20050;-67
2023/10/18 11:04:14;;;;;;;20.02;7.60;;;;;;;10.90;89.62;100399.91;5050769;28;20065;-67
2023/10/18 11:06:44;;;;;;;21.48;7.60;;;;;;;10.96;90.73;100393.09;5051180;28;20112;-67
2023/10/18 11:09:17;;;;;;;20.02;7.75;;;;;;;11.06;90.47;100394.75;5049430;28;20065;-66
2023/10/18 11:11:45;;;;;;;21.42;7.93;;;;;;;11.14;90.15;100377.34;5051014;28;20458;-67
2023/10/18 11:14:17;;;;;;;20.52;7.35;;;;;;;11.22;90.08;100375.75;5050756;28;20481;-68
2023/10/18 11:16:45;;;;;;;20.45;7.28;;;;;;;11.28;90.37;100374.47;5051174;28;20025;-67
2023/10/18 11:19:14;;;;;;;20.27;7.53;;;;;;;11.38;89.31;100370.59;5050733;28;20025;-67
2023/10/18 11:21:41;;;;;;;21.27;7.25;;;;;;;11.41;89.80;100374.66;5050819;28;20025;-67
2023/10/18 11:24:11;;;;;;;19.60;7.38;;;;;;;11.41;87.60;100367.16;5050733;28;20101;-67
2023/10/18 11:26:41;;;;;;;20.10;7.07;;;;;;;11.41;87.88;100356.06;5050395;28;20082;-67
2023/10/18 11:29:06;;;;;;;21.70;7.32;;;;;;;11.42;88.42;100360.47;5048145;28;20033;-66
2023/10/18 11:31:32;;;;;;;20.60;7.40;;;;;;;11.42;89.13;100349.41;5048764;28;20346;-67
2023/10/18 11:34:07;;;;;;;19.70;7.43;;;;;;;11.49;88.79;100344.19;5050482;28;20085;-67
2023/10/18 11:36:39;;;;;;;18.90;7.03;;;;;;;11.57;89.49;100341.75;5050556;28;20039;-67
2023/10/18 11:39:17;;;;;;;19.63;6.97;;;;;;;11.69;89.80;100339.13;5050379;28;20029;-67
2023/10/18 11:41:44;;;;;;;20.30;7.40;;;;;;;11.77;87.63;100326.44;5050350;28;20116;-66
2023/10/18 11:44:16;;;;;;;19.90;7.38;;;;;;;11.83;88.02;100312.09;5048849;28;20388;-67
2023/10/18 11:46:58;;;;;;;19.35;7.68;;;;;;;11.91;87.38;100318.75;5050717;28;20051;-67
2023/10/18 11:49:39;;;;;;;19.55;7.20;;;;;;;11.96;87.40;100309.44;5050329;28;20025;-67
2023/10/18 11:52:12;;;;;;;21.10;7.50;;;;;;;12.09;87.15;100296.59;5050451;28;20131;-67
2023/10/18 11:54:37;;;;;;;21.80;7.28;;;;;;;12.15;86.66;100303.56;5050180;28;20029;-66
2023/10/18 11:57:07;;;;;;;21.13;7.60;;;;;;;12.14;85.66;100301.94;5049777;28;20049;-67
2023/10/18 11:59:51;;;;;;;19.70;7.40;;;;;;;12.17;87.60;100302.09;5050275;28;20491;-67
2023/10/18 12:02:16;;;;;;;;;;;;;;;12.24;88.79;100292.44;5050498;28;20119;-68
2023/10/18 12:04:44;;;;;;;20.10;6.87;;;;;;;12.27;85.91;100284.31;5050165;28;19948;-67
2023/10/18 12:07:13;;;;;;;18.35;6.72;;;;;;;12.33;85.70;100265.50;5050580;28;20468;-67
2023/10/18 12:09:45;;;;;;;19.80;6.90;;;;;;;12.39;85.69;100266.13;5050015;28;20025;-67
2023/10/18 12:12:13;;;;;;;19.80;7.03;;;;;;;12.43;84.66;100256.00;5050004;28;20392;-67
2023/10/18 12:14:42;;;;;;;20.13;6.82;;;;;;;12.43;85.78;100242.94;5048588;28;20068;-68
2023/10/18 12:17:12;;;;;;;20.85;7.22;;;;;;;12.50;85.94;100244.38;5048546;28;20443;-67
2023/10/18 12:19:38;;;;;;;18.92;7.35;;;;;;;12.52;85.55;100233.75;5050039;28;20128;-67